createdAt,value
2023-02-27T00:00:07.238Z,99.90
2023-02-27T00:02:35.101Z,99.90
2023-02-27T00:05:03.025Z,99.90
2023-02-27T00:07:32.188Z,99.90
2023-02-27T00:09:59.994Z,99.90
2023-02-27T00:12:27.834Z,99.90
2023-02-27T00:14:55.706Z,99.90
2023-02-27T00:17:25.726Z,99.90
2023-02-27T00:19:53.499Z,99.90
2023-02-27T00:22:21.262Z,99.90
2023-02-27T00:24:50.548Z,99.90
2023-02-27T00:27:18.324Z,99.90
2023-02-27T00:29:46.499Z,99.90
2023-02-27T00:32:14.421Z,99.90
2023-02-27T00:34:42.350Z,99.90
2023-02-27T00:37:10.219Z,99.90
2023-02-27T00:39:38.193Z,99.90
2023-02-27T00:42:07.339Z,99.90
2023-02-27T00:44:35.160Z,99.90
2023-02-27T00:47:03.023Z,99.90
2023-02-27T00:49:30.826Z,99.90
2023-02-27T00:51:58.666Z,99.90
2023-02-27T00:54:26.556Z,99.90
2023-02-27T00:56:54.308Z,99.90
2023-02-27T00:59:23.549Z,99.90
2023-02-27T01:01:51.383Z,99.90
2023-02-27T01:04:19.310Z,99.90
2023-02-27T01:06:47.558Z,99.90
2023-02-27T01:09:15.401Z,99.90
2023-02-27T01:11:43.258Z,99.90
2023-02-27T01:14:11.100Z,99.90
2023-02-27T01:16:40.397Z,99.90
2023-02-27T01:19:08.242Z,99.90
2023-02-27T01:21:36.089Z,99.90
2023-02-27T01:24:04.167Z,99.90
2023-02-27T01:26:31.979Z,99.90
2023-02-27T01:28:59.753Z,99.90
2023-02-27T01:31:27.955Z,99.90
2023-02-27T01:33:57.280Z,99.90
2023-02-27T01:36:25.092Z,99.90
2023-02-27T01:38:52.965Z,99.90
2023-02-27T01:41:21.102Z,99.90
2023-02-27T01:43:58.019Z,99.90
2023-02-27T01:46:26.168Z,99.90
2023-02-27T01:48:59.507Z,99.90
2023-02-27T01:51:33.260Z,99.90
2023-02-27T01:54:01.765Z,99.90
2023-02-27T01:56:32.556Z,99.90
2023-02-27T01:59:04.404Z,99.90
2023-02-27T02:01:33.824Z,99.90
2023-02-27T02:04:07.658Z,99.90
2023-02-27T02:06:40.843Z,99.90
2023-02-27T02:09:10.709Z,99.90
2023-02-27T02:11:39.969Z,99.90
2023-02-27T02:14:10.797Z,99.90
2023-02-27T02:17:02.946Z,99.90
2023-02-27T02:19:50.364Z,99.90
2023-02-27T02:22:53.927Z,99.90
2023-02-27T02:25:57.075Z,99.90
2023-02-27T02:28:44.944Z,99.90
2023-02-27T02:31:44.243Z,99.90
2023-02-27T02:34:52.474Z,99.90
2023-02-27T02:37:56.890Z,99.90
2023-02-27T02:40:36.459Z,99.90
2023-02-27T02:43:12.129Z,99.90
2023-02-27T02:45:48.016Z,99.90
2023-02-27T02:48:20.364Z,99.90
2023-02-27T02:50:52.415Z,99.90
2023-02-27T02:53:36.600Z,99.90
2023-02-27T02:56:11.472Z,99.90
2023-02-27T02:58:46.876Z,99.90
2023-02-27T03:01:17.621Z,99.90
2023-02-27T03:03:50.757Z,99.90
2023-02-27T03:06:23.673Z,99.90
2023-02-27T03:08:58.047Z,99.90
2023-02-27T03:11:31.131Z,99.90
2023-02-27T03:14:07.560Z,99.90
2023-02-27T03:16:41.012Z,99.90
2023-02-27T03:19:14.386Z,99.90
2023-02-27T03:21:47.776Z,99.90
2023-02-27T03:24:20.674Z,99.90
2023-02-27T03:26:52.806Z,99.90
2023-02-27T03:29:27.500Z,99.90
2023-02-27T03:31:59.139Z,99.90
2023-02-27T03:34:30.934Z,99.90
2023-02-27T03:37:04.284Z,99.90
2023-02-27T03:39:41.463Z,99.90
2023-02-27T03:42:20.371Z,99.90
2023-02-27T03:44:55.948Z,99.90
2023-02-27T03:47:23.898Z,99.90
2023-02-27T03:49:52.121Z,99.90
2023-02-27T03:52:21.181Z,99.90
2023-02-27T03:54:54.333Z,99.90
2023-02-27T03:57:23.870Z,99.90
2023-02-27T03:59:53.169Z,99.90
2023-02-27T04:02:21.572Z,99.90
2023-02-27T04:04:50.884Z,99.90
2023-02-27T04:07:27.584Z,99.90
2023-02-27T04:10:16.571Z,99.90
2023-02-27T04:13:18.275Z,99.90
2023-02-27T04:16:17.914Z,99.90
2023-02-27T04:18:57.092Z,99.90
2023-02-27T04:21:32.151Z,99.90
2023-02-27T04:24:10.830Z,99.90
2023-02-27T04:26:44.909Z,99.90
2023-02-27T04:29:18.471Z,99.90
2023-02-27T04:31:51.650Z,99.90
2023-02-27T04:34:25.139Z,99.90
2023-02-27T04:36:59.060Z,99.90
2023-02-27T04:39:31.431Z,99.90
2023-02-27T04:42:03.273Z,99.90
2023-02-27T04:44:37.027Z,99.90
2023-02-27T04:47:07.699Z,99.90
2023-02-27T04:49:38.883Z,99.90
2023-02-27T04:52:08.567Z,99.90
2023-02-27T04:54:41.561Z,99.90
2023-02-27T04:57:13.719Z,99.90
2023-02-27T04:59:46.572Z,99.90
2023-02-27T05:02:17.859Z,99.90
2023-02-27T05:04:47.492Z,99.90
2023-02-27T05:07:18.855Z,99.90
2023-02-27T05:09:52.046Z,99.90
2023-02-27T05:12:25.466Z,99.90
2023-02-27T05:15:00.968Z,99.90
2023-02-27T05:17:32.938Z,99.90
2023-02-27T05:20:01.386Z,99.90
2023-02-27T05:22:37.166Z,99.90
2023-02-27T05:25:13.751Z,99.90
2023-02-27T05:27:48.352Z,99.90
2023-02-27T05:30:27.005Z,99.90
2023-02-27T05:33:00.123Z,99.90
2023-02-27T05:35:33.599Z,99.90
2023-02-27T05:38:06.846Z,99.90
2023-02-27T05:40:38.420Z,99.90
2023-02-27T05:43:09.908Z,99.90
2023-02-27T05:45:41.112Z,99.90
2023-02-27T05:48:13.339Z,99.90
2023-02-27T05:50:43.091Z,99.90
2023-02-27T05:53:15.196Z,99.90
2023-02-27T05:55:46.608Z,99.90
2023-02-27T05:58:20.335Z,99.90
2023-02-27T06:00:52.725Z,99.90
2023-02-27T06:03:21.186Z,99.90
2023-02-27T06:05:56.854Z,99.90
2023-02-27T06:08:25.250Z,99.90
2023-02-27T06:10:55.161Z,99.90
2023-02-27T06:13:23.483Z,99.90
2023-02-27T06:15:52.975Z,99.90
2023-02-27T06:18:21.548Z,99.90
2023-02-27T06:20:50.348Z,99.90
2023-02-27T06:23:18.306Z,99.90
2023-02-27T06:25:46.995Z,99.90
2023-02-27T06:28:14.982Z,99.90
2023-02-27T06:30:44.683Z,99.90
2023-02-27T06:33:15.692Z,99.90
2023-02-27T06:35:43.561Z,99.90
2023-02-27T06:38:11.572Z,99.90
2023-02-27T06:40:39.391Z,99.90
2023-02-27T06:43:07.158Z,99.90
2023-02-27T06:45:35.816Z,99.90
2023-02-27T06:48:03.671Z,99.90
2023-02-27T06:50:32.871Z,99.90
2023-02-27T06:53:00.694Z,99.90
2023-02-27T06:55:28.563Z,99.90
2023-02-27T06:57:56.421Z,99.90
2023-02-27T07:00:24.851Z,99.90
2023-02-27T07:02:52.646Z,99.90
2023-02-27T07:05:20.453Z,99.90
2023-02-27T07:07:49.648Z,99.90
2023-02-27T07:10:17.930Z,99.90
2023-02-27T07:12:45.773Z,99.90
2023-02-27T07:15:13.638Z,99.90
2023-02-27T07:17:41.565Z,99.90
2023-02-27T07:20:11.642Z,99.90
2023-02-27T07:22:40.160Z,99.90
2023-02-27T07:25:10.708Z,99.90
2023-02-27T07:27:38.615Z,99.90
2023-02-27T07:30:07.413Z,99.90
2023-02-27T07:32:35.244Z,99.90
2023-02-27T07:35:04.580Z,99.90
2023-02-27T07:37:32.740Z,99.90
2023-02-27T07:40:00.570Z,99.90
2023-02-27T07:42:30.044Z,99.90
2023-02-27T07:44:57.846Z,99.90
2023-02-27T07:47:25.672Z,99.90
2023-02-27T07:49:53.529Z,99.90
2023-02-27T07:52:21.371Z,99.90
2023-02-27T07:54:49.313Z,99.90
2023-02-27T07:57:17.221Z,99.90
2023-02-27T07:59:46.665Z,99.90
2023-02-27T08:02:14.810Z,99.90
2023-02-27T08:04:42.728Z,99.90
2023-02-27T08:07:10.599Z,99.90
2023-02-27T08:09:38.416Z,99.90
2023-02-27T08:12:06.639Z,99.90
2023-02-27T08:14:34.518Z,99.90
2023-02-27T08:17:03.716Z,99.90
2023-02-27T08:19:31.498Z,99.90
2023-02-27T08:21:59.536Z,99.90
2023-02-27T08:24:27.707Z,99.90
2023-02-27T08:26:55.500Z,99.90
2023-02-27T08:29:23.339Z,99.90
2023-02-27T08:31:51.265Z,99.90
2023-02-27T08:34:20.833Z,99.90
2023-02-27T08:36:48.635Z,99.90
2023-02-27T08:39:17.760Z,99.90
2023-02-27T08:41:46.736Z,99.90
2023-02-27T08:44:14.656Z,99.90
2023-02-27T08:46:42.450Z,99.90
2023-02-27T08:49:10.285Z,99.90
2023-02-27T08:51:39.501Z,99.90
2023-02-27T08:54:07.631Z,99.90
2023-02-27T08:56:35.602Z,99.90
2023-02-27T08:59:03.588Z,99.90
2023-02-27T09:01:34.498Z,99.90
2023-02-27T09:04:03.609Z,99.90
2023-02-27T09:06:32.855Z,99.90
2023-02-27T09:09:02.651Z,99.90
2023-02-27T09:11:30.981Z,99.90
2023-02-27T09:13:59.013Z,99.90
2023-02-27T09:16:27.419Z,99.90
2023-02-27T09:18:55.819Z,99.90
2023-02-27T09:21:24.803Z,99.90
2023-02-27T09:23:52.742Z,99.90
2023-02-27T09:26:35.699Z,99.90
2023-02-27T09:29:08.783Z,99.90
2023-02-27T09:31:36.684Z,99.90
2023-02-27T09:34:04.751Z,99.90
2023-02-27T09:36:32.585Z,99.90
2023-02-27T09:39:00.860Z,99.90
2023-02-27T09:41:43.247Z,99.90
2023-02-27T09:44:30.578Z,99.90
2023-02-27T09:47:05.606Z,99.90
2023-02-27T09:49:42.449Z,99.90
2023-02-27T09:52:15.487Z,99.90
2023-02-27T09:54:44.644Z,99.90
2023-02-27T09:57:19.624Z,99.90
2023-02-27T09:59:53.500Z,99.90
2023-02-27T10:02:40.728Z,99.90
2023-02-27T10:05:20.682Z,99.90
2023-02-27T10:07:57.003Z,99.90
2023-02-27T10:10:31.589Z,99.90
2023-02-27T10:13:30.934Z,99.90
2023-02-27T10:16:00.368Z,99.90
2023-02-27T10:18:32.532Z,99.90
2023-02-27T10:21:04.033Z,99.90
2023-02-27T10:23:37.181Z,99.90
2023-02-27T10:26:05.813Z,99.90
2023-02-27T10:28:35.251Z,99.90
2023-02-27T10:31:03.757Z,99.90
2023-02-27T10:33:36.677Z,99.90
2023-02-27T10:36:12.431Z,99.90
2023-02-27T10:38:46.880Z,99.90
2023-02-27T10:41:18.034Z,99.90
2023-02-27T10:43:47.570Z,99.90
2023-02-27T10:46:18.228Z,99.90
2023-02-27T10:48:53.684Z,99.90
2023-02-27T10:51:25.805Z,99.90
2023-02-27T10:54:23.762Z,99.90
2023-02-27T10:56:54.446Z,99.90
2023-02-27T10:59:24.753Z,99.90
2023-02-27T11:01:55.981Z,99.90
2023-02-27T11:04:30.540Z,99.90
2023-02-27T11:07:00.237Z,99.90
2023-02-27T11:09:32.441Z,99.90
2023-02-27T11:12:13.546Z,99.90
2023-02-27T11:14:52.892Z,99.90
2023-02-27T11:17:27.282Z,99.90
2023-02-27T11:19:55.217Z,99.90
2023-02-27T11:22:25.297Z,99.90
2023-02-27T11:25:10.893Z,99.90
2023-02-27T11:27:38.919Z,99.90
2023-02-27T11:30:22.478Z,99.90
2023-02-27T11:32:52.120Z,99.90
2023-02-27T11:35:25.246Z,99.90
2023-02-27T11:37:55.160Z,99.90
2023-02-27T11:40:29.458Z,99.90
2023-02-27T11:43:03.184Z,99.90
2023-02-27T11:46:05.218Z,99.90
2023-02-27T11:48:24.708Z,99.90
2023-02-27T11:50:57.063Z,99.90
2023-02-27T11:53:44.259Z,99.90
2023-02-27T11:56:17.679Z,99.90
2023-02-27T11:58:54.605Z,99.90
2023-02-27T12:01:26.710Z,99.90
2023-02-27T12:04:03.388Z,99.90
2023-02-27T12:06:36.911Z,99.90
2023-02-27T12:09:10.802Z,99.90
2023-02-27T12:11:45.037Z,99.90
2023-02-27T12:14:19.924Z,99.90
2023-02-27T12:16:53.976Z,99.90
2023-02-27T12:19:27.281Z,99.90
2023-02-27T12:21:59.225Z,99.90
2023-02-27T12:24:31.663Z,99.90
2023-02-27T12:27:11.176Z,99.90
2023-02-27T12:29:44.774Z,99.90
2023-02-27T12:32:19.550Z,99.90
2023-02-27T12:34:50.691Z,99.90
2023-02-27T12:37:20.448Z,99.90
2023-02-27T12:39:48.429Z,99.90
2023-02-27T12:42:38.466Z,99.90
2023-02-27T12:45:36.222Z,99.90
2023-02-27T12:48:18.126Z,99.90
2023-02-27T12:50:53.264Z,99.90
2023-02-27T12:53:35.051Z,99.90
2023-02-27T12:56:07.129Z,99.90
2023-02-27T12:58:45.505Z,99.90
2023-02-27T13:01:27.594Z,99.90
2023-02-27T13:03:59.772Z,99.90
2023-02-27T13:06:32.964Z,99.90
2023-02-27T13:09:17.103Z,99.90
2023-02-27T13:11:56.823Z,99.90
2023-02-27T13:14:38.657Z,99.90
2023-02-27T13:17:16.272Z,99.90
2023-02-27T13:19:49.722Z,99.90
2023-02-27T13:22:29.167Z,99.90
2023-02-27T13:25:00.229Z,99.90
2023-02-27T13:27:33.630Z,99.90
2023-02-27T13:30:14.030Z,99.90
2023-02-27T13:32:47.618Z,99.50
2023-02-27T13:35:28.015Z,99.80
2023-02-27T13:37:57.810Z,99.70
2023-02-27T13:40:31.836Z,99.90
2023-02-27T13:43:02.842Z,99.90
2023-02-27T13:46:05.703Z,99.90
2023-02-27T13:48:48.230Z,99.90
2023-02-27T13:51:42.500Z,99.90
2023-02-27T13:54:20.774Z,99.90
2023-02-27T13:56:51.366Z,99.90
2023-02-27T13:59:23.845Z,99.70
2023-02-27T14:01:56.481Z,99.90
2023-02-27T14:04:27.154Z,99.90
2023-02-27T14:07:00.737Z,99.90
2023-02-27T14:09:35.584Z,99.90
2023-02-27T14:12:04.959Z,99.90
2023-02-27T14:14:44.361Z,99.90
2023-02-27T14:17:15.048Z,99.90
2023-02-27T14:19:50.415Z,99.90
2023-02-27T14:22:35.490Z,99.90
2023-02-27T14:25:13.033Z,99.90
2023-02-27T14:27:54.726Z,99.70
2023-02-27T14:30:38.557Z,99.40
2023-02-27T14:33:37.740Z,99.40
2023-02-27T14:36:11.016Z,99.30
2023-02-27T14:38:40.235Z,99.10
2023-02-27T14:41:23.951Z,99.20
2023-02-27T14:43:56.837Z,99.50
2023-02-27T14:46:28.473Z,99.40
2023-02-27T14:49:00.099Z,99.10
2023-02-27T14:51:30.792Z,99.00
2023-02-27T14:54:04.032Z,99.20
2023-02-27T14:56:31.944Z,99.10
2023-02-27T14:59:04.682Z,99.10
2023-02-27T15:01:36.927Z,99.00
2023-02-27T15:04:08.492Z,98.80
2023-02-27T15:06:44.035Z,98.90
2023-02-27T15:09:22.141Z,98.80
2023-02-27T15:12:02.585Z,98.90
2023-02-27T15:14:34.287Z,98.90
2023-02-27T15:17:03.194Z,99.10
2023-02-27T15:19:32.436Z,99.10
2023-02-27T15:22:05.076Z,99.00
2023-02-27T15:24:47.776Z,98.80
2023-02-27T15:27:19.408Z,98.90
2023-02-27T15:29:51.834Z,98.90
2023-02-27T15:32:30.311Z,98.90
2023-02-27T15:35:02.084Z,99.20
2023-02-27T15:37:32.420Z,98.90
2023-02-27T15:40:02.172Z,99.30
2023-02-27T15:42:33.540Z,99.30
2023-02-27T15:45:02.031Z,99.20
2023-02-27T15:47:32.731Z,98.60
2023-02-27T15:50:08.005Z,98.70
2023-02-27T15:52:42.885Z,98.80
2023-02-27T15:55:16.913Z,98.90
2023-02-27T15:58:00.757Z,98.90
2023-02-27T16:00:32.164Z,99.00
2023-02-27T16:03:00.323Z,98.80
2023-02-27T16:05:34.179Z,98.90
2023-02-27T16:08:03.463Z,98.80
2023-02-27T16:10:36.865Z,98.70
2023-02-27T16:13:33.388Z,98.40
2023-02-27T16:16:03.032Z,98.00
2023-02-27T16:18:35.404Z,98.00
2023-02-27T16:21:13.484Z,98.20
2023-02-27T16:23:41.637Z,98.00
2023-02-27T16:26:27.015Z,98.00
2023-02-27T16:28:57.181Z,98.20
2023-02-27T16:31:28.860Z,98.40
2023-02-27T16:33:59.324Z,98.30
2023-02-27T16:36:30.492Z,98.30
2023-02-27T16:38:58.580Z,98.50
2023-02-27T16:41:26.623Z,98.50
2023-02-27T16:43:55.285Z,98.70
2023-02-27T16:46:23.710Z,98.80
2023-02-27T16:48:54.270Z,99.00
2023-02-27T16:51:24.281Z,99.00
2023-02-27T16:53:55.714Z,98.90
2023-02-27T16:56:37.238Z,98.90
2023-02-27T16:59:06.203Z,98.90
2023-02-27T17:01:34.620Z,98.70
2023-02-27T17:04:04.046Z,98.70
2023-02-27T17:06:36.615Z,98.70
2023-02-27T17:09:05.878Z,98.60
2023-02-27T17:11:33.764Z,98.60
2023-02-27T17:14:01.939Z,98.60
2023-02-27T17:16:30.575Z,98.40
2023-02-27T17:18:58.716Z,98.60
2023-02-27T17:21:27.506Z,98.70
2023-02-27T17:23:55.314Z,98.50
2023-02-27T17:26:24.890Z,98.60
2023-02-27T17:28:52.759Z,98.80
2023-02-27T17:31:23.043Z,98.90
2023-02-27T17:33:51.727Z,99.10
2023-02-27T17:36:20.089Z,99.10
2023-02-27T17:38:48.936Z,99.40
2023-02-27T17:41:17.402Z,99.50
2023-02-27T17:43:51.408Z,99.60
2023-02-27T17:46:19.280Z,99.60
2023-02-27T17:48:47.129Z,99.60
2023-02-27T17:51:16.652Z,99.70
2023-02-27T17:53:44.679Z,99.40
2023-02-27T17:56:13.717Z,99.30
2023-02-27T17:58:41.633Z,99.30
2023-02-27T18:01:13.245Z,99.20
2023-02-27T18:03:41.839Z,99.00
2023-02-27T18:06:09.615Z,99.00
2023-02-27T18:08:37.619Z,99.20
2023-02-27T18:11:09.373Z,99.30
2023-02-27T18:13:37.356Z,99.20
2023-02-27T18:16:05.700Z,99.00
2023-02-27T18:18:36.336Z,98.90
2023-02-27T18:21:06.815Z,99.10
2023-02-27T18:23:34.699Z,99.00
2023-02-27T18:26:02.513Z,99.20
2023-02-27T18:28:30.571Z,99.50
2023-02-27T18:30:58.682Z,99.40
2023-02-27T18:33:27.339Z,99.60
2023-02-27T18:35:56.641Z,99.30
2023-02-27T18:38:24.483Z,99.60
2023-02-27T18:40:52.320Z,99.60
2023-02-27T18:43:20.133Z,99.60
2023-02-27T18:45:48.147Z,99.80
2023-02-27T18:48:15.968Z,99.90
2023-02-27T18:50:43.829Z,99.90
2023-02-27T18:53:13.064Z,99.80
2023-02-27T18:55:40.861Z,99.80
2023-02-27T18:58:08.783Z,99.80
2023-02-27T19:00:37.595Z,99.90
2023-02-27T19:03:06.712Z,99.90
2023-02-27T19:05:39.303Z,99.90
2023-02-27T19:08:07.277Z,99.90
2023-02-27T19:10:39.075Z,99.90
2023-02-27T19:13:07.192Z,99.90
2023-02-27T19:15:35.232Z,99.90
2023-02-27T19:18:03.213Z,99.90
2023-02-27T19:20:31.164Z,99.90
2023-02-27T19:22:59.113Z,99.90
2023-02-27T19:25:27.160Z,99.90
2023-02-27T19:27:57.719Z,99.90
2023-02-27T19:30:26.201Z,99.90
2023-02-27T19:32:54.191Z,99.90
2023-02-27T19:35:22.606Z,99.90
2023-02-27T19:37:56.820Z,99.90
2023-02-27T19:40:26.115Z,99.90
2023-02-27T19:42:53.965Z,99.90
2023-02-27T19:45:23.519Z,99.90
2023-02-27T19:47:52.398Z,99.90
2023-02-27T19:50:20.371Z,99.90
2023-02-27T19:52:48.261Z,99.90
2023-02-27T19:55:16.247Z,99.90
2023-02-27T19:57:44.156Z,99.90
2023-02-27T20:00:14.200Z,99.90
2023-02-27T20:02:43.909Z,99.90
2023-02-27T20:05:12.650Z,99.90
2023-02-27T20:07:42.382Z,99.90
2023-02-27T20:10:11.787Z,99.90
2023-02-27T20:12:39.652Z,99.90
2023-02-27T20:15:11.745Z,99.90
2023-02-27T20:17:41.962Z,99.90
2023-02-27T20:20:13.316Z,99.90
2023-02-27T20:22:44.554Z,99.90
2023-02-27T20:25:13.704Z,99.90
2023-02-27T20:27:41.624Z,99.90
2023-02-27T20:30:11.064Z,99.90
2023-02-27T20:32:39.227Z,99.90
2023-02-27T20:35:08.389Z,99.90
2023-02-27T20:37:37.538Z,99.90
2023-02-27T20:40:06.120Z,99.90
2023-02-27T20:42:34.081Z,99.90
2023-02-27T20:45:01.950Z,99.90
2023-02-27T20:47:29.797Z,99.90
2023-02-27T20:49:57.554Z,99.90
2023-02-27T20:52:25.351Z,99.90
2023-02-27T20:54:55.289Z,99.90
2023-02-27T20:57:23.154Z,99.90
2023-02-27T20:59:51.153Z,99.90
2023-02-27T21:02:19.033Z,99.90
2023-02-27T21:04:47.266Z,99.90
2023-02-27T21:07:17.647Z,99.90
2023-02-27T21:09:46.006Z,99.90
2023-02-27T21:12:15.267Z,99.90
2023-02-27T21:14:44.498Z,99.90
2023-02-27T21:17:13.619Z,99.90
2023-02-27T21:19:41.472Z,99.90
2023-02-27T21:22:10.981Z,99.90
2023-02-27T21:24:39.060Z,99.90
2023-02-27T21:27:07.129Z,99.90
2023-02-27T21:29:36.329Z,99.90
2023-02-27T21:32:04.495Z,99.90
2023-02-27T21:34:32.389Z,99.90
2023-02-27T21:37:02.611Z,99.90
2023-02-27T21:39:30.529Z,99.90
2023-02-27T21:41:59.458Z,99.90
2023-02-27T21:44:27.372Z,99.90
2023-02-27T21:46:56.873Z,99.90
2023-02-27T21:49:26.699Z,99.90
2023-02-27T21:51:54.814Z,99.90
2023-02-27T21:54:22.994Z,99.90
2023-02-27T21:56:51.147Z,99.90
2023-02-27T21:59:20.790Z,99.90
2023-02-27T22:01:48.941Z,99.90
2023-02-27T22:04:20.467Z,99.90
2023-02-27T22:06:49.621Z,99.90
2023-02-27T22:09:18.126Z,99.90
2023-02-27T22:11:47.567Z,99.90
2023-02-27T22:14:15.828Z,99.90
2023-02-27T22:16:44.321Z,99.90
2023-02-27T22:19:14.075Z,99.90
2023-02-27T22:21:43.213Z,99.90
2023-02-27T22:24:11.383Z,99.90
2023-02-27T22:26:39.872Z,99.90
2023-02-27T22:29:07.890Z,99.90
2023-02-27T22:31:37.787Z,99.90
2023-02-27T22:34:07.706Z,99.90
2023-02-27T22:36:36.182Z,99.90
2023-02-27T22:39:05.840Z,99.90
2023-02-27T22:41:35.484Z,99.90
2023-02-27T22:44:04.294Z,99.90
2023-02-27T22:46:34.864Z,99.90
2023-02-27T22:49:05.269Z,99.90
2023-02-27T22:51:33.327Z,99.90
2023-02-27T22:54:03.139Z,99.90
2023-02-27T22:56:33.446Z,99.90
2023-02-27T22:59:01.369Z,99.90
2023-02-27T23:01:31.459Z,99.90
2023-02-27T23:04:02.180Z,99.90
2023-02-27T23:06:31.896Z,99.90
2023-02-27T23:09:00.341Z,99.90
2023-02-27T23:11:28.800Z,99.90
2023-02-27T23:13:58.426Z,99.90
2023-02-27T23:16:26.834Z,99.90
2023-02-27T23:18:56.690Z,99.90
2023-02-27T23:21:29.549Z,99.90
2023-02-27T23:23:58.291Z,99.90
2023-02-27T23:26:28.445Z,99.90
2023-02-27T23:28:58.639Z,99.90
2023-02-27T23:31:26.715Z,99.90
2023-02-27T23:33:54.901Z,99.90
2023-02-27T23:36:23.000Z,99.90
2023-02-27T23:38:50.833Z,99.90
2023-02-27T23:41:20.748Z,99.90
2023-02-27T23:43:52.401Z,99.90
2023-02-27T23:46:22.194Z,99.90
2023-02-27T23:48:50.179Z,99.90
2023-02-27T23:51:18.137Z,99.90
2023-02-27T23:53:46.018Z,99.90
2023-02-27T23:56:15.772Z,99.90
2023-02-27T23:58:43.655Z,99.90
